Time;durP1;ratioP1;P1;durP2;ratioP2;P2;SDS_P1;SDS_P2;PMS_P1;PMS_P2;Temp;Humidity;BMP_temperature;BMP_pressure;BME280_temperature;BME280_humidity;BME280_pressure;Samples;Min_cycle;Max_cycle;Signal;HPM_P1;HPM_P2
2022/07/21 00:00:27;;;;;;;7.07;4.05;;;;;;;;;;5124304;28;20028;-73
2022/07/21 00:02:54;;;;;;;6.35;4.03;;;;;;;;;;5124950;28;20208;-72
2022/07/21 00:05:19;;;;;;;5.72;3.75;;;;;;;;;;5117810;28;20041;-72
2022/07/21 00:07:46;;;;;;;6.78;3.83;;;;;;;;;;5124495;28;20020;-73
2022/07/21 00:10:12;;;;;;;7.38;3.85;;;;;;;;;;5124609;28;20031;-73
2022/07/21 00:12:37;;;;;;;5.45;3.63;;;;;;;;;;5106105;28;20028;-72
2022/07/21 00:15:04;;;;;;;5.13;3.78;;;;;;;;;;5124278;28;20316;-73
2022/07/21 00:17:30;;;;;;;7.10;3.65;;;;;;;;;;5124389;28;20035;-73
2022/07/21 00:19:55;;;;;;;5.57;3.92;;;;;;;;;;5124079;28;20035;-72
2022/07/21 00:22:21;;;;;;;5.47;3.97;;;;;;;;;;5124166;28;20023;-73
2022/07/21 00:24:46;;;;;;;6.97;3.97;;;;;;;;;;5123676;28;20023;-73
2022/07/21 00:27:11;;;;;;;7.97;3.90;;;;;;;;;;5124094;28;20025;-73
2022/07/21 00:29:37;;;;;;;5.90;3.70;;;;;;;;;;5098317;28;20142;-72
2022/07/21 00:32:04;;;;;;;9.10;4.15;;;;;;;;;;5117649;28;20066;-73
2022/07/21 00:34:29;;;;;;;6.55;3.85;;;;;;;;;;5123774;28;20031;-73
2022/07/21 00:36:54;;;;;;;7.68;4.10;;;;;;;;;;5124184;28;20057;-73
2022/07/21 00:39:20;;;;;;;7.55;4.18;;;;;;;;;;5123613;28;20055;-73
2022/07/21 00:41:45;;;;;;;6.63;4.13;;;;;;;;;;5123570;28;20257;-72
2022/07/21 00:44:26;;;;;;;6.30;4.43;;;;;;;;;;5123509;28;20055;-73
2022/07/21 00:46:52;;;;;;;7.35;4.53;;;;;;;;;;5121322;28;20026;-73
2022/07/21 00:49:18;;;;;;;7.57;4.20;;;;;;;;;;5123729;28;20047;-73
2022/07/21 00:51:43;;;;;;;7.60;4.20;;;;;;;;;;5123515;28;20372;-72
2022/07/21 00:54:09;;;;;;;6.25;4.13;;;;;;;;;;5122646;28;20047;-72
2022/07/21 00:56:35;;;;;;;6.75;4.10;;;;;;;;;;5124121;28;20091;-73
2022/07/21 00:59:01;;;;;;;5.97;3.75;;;;;;;;;;5123138;28;20028;-73
2022/07/21 01:01:26;;;;;;;8.13;4.28;;;;;;;;;;5123317;28;20031;-73
2022/07/21 01:03:52;;;;;;;6.95;4.47;;;;;;;;;;5123355;28;20030;-73
2022/07/21 01:06:17;;;;;;;8.30;4.20;;;;;;;;;;5093350;28;20082;-73
2022/07/21 01:08:42;;;;;;;8.23;4.50;;;;;;;;;;5121452;28;20507;-72
2022/07/21 01:11:08;;;;;;;6.53;4.95;;;;;;;;;;5123238;28;20346;-72
2022/07/21 01:13:33;;;;;;;11.48;4.88;;;;;;;;;;5123107;28;20031;-73
2022/07/21 01:15:58;;;;;;;11.60;4.95;;;;;;;;;;5123170;28;20034;-73
2022/07/21 01:18:24;;;;;;;7.00;4.47;;;;;;;;;;5122955;28;20043;-73
2022/07/21 01:20:53;;;;;;;7.55;4.30;;;;;;;;;;5123114;28;20043;-72
2022/07/21 01:23:21;;;;;;;7.35;4.00;;;;;;;;;;5122629;28;20022;-73
2022/07/21 01:25:50;;;;;;;8.65;4.20;;;;;;;;;;5122944;28;20028;-73
2022/07/21 01:28:16;;;;;;;7.00;4.10;;;;;;;;;;5122744;28;20019;-73
2022/07/21 01:30:42;;;;;;;8.35;4.40;;;;;;;;;;5122884;28;20024;-73
2022/07/21 01:33:08;;;;;;;6.57;4.20;;;;;;;;;;5116204;28;20036;-72
2022/07/21 01:35:33;;;;;;;10.10;4.05;;;;;;;;;;5122764;28;20258;-72
2022/07/21 01:38:00;;;;;;;6.35;4.00;;;;;;;;;;5122276;28;20043;-72
2022/07/21 01:43:09;;;;;;;6.55;4.00;;;;;;;;;;5120591;28;20065;-72
2022/07/21 01:45:34;;;;;;;7.30;3.80;;;;;;;;;;5104165;28;20015;-73
2022/07/21 01:48:00;;;;;;;6.30;4.03;;;;;;;;;;5122418;28;20046;-72
2022/07/21 01:50:28;;;;;;;6.70;4.10;;;;;;;;;;5122274;28;20019;-73
2022/07/21 01:52:55;;;;;;;7.95;4.50;;;;;;;;;;5103924;28;20415;-73
2022/07/21 01:55:22;;;;;;;5.97;3.97;;;;;;;;;;5121978;28;20081;-73
2022/07/21 01:57:47;;;;;;;8.25;4.03;;;;;;;;;;5115917;28;20024;-72
2022/07/21 02:00:13;;;;;;;7.93;4.00;;;;;;;;;;5122190;28;20023;-75
2022/07/21 02:02:38;;;;;;;8.00;3.90;;;;;;;;;;5122367;28;20140;-73
2022/07/21 02:05:04;;;;;;;6.72;3.97;;;;;;;;;;5110781;28;20027;-72
2022/07/21 02:07:29;;;;;;;5.93;4.00;;;;;;;;;;5121229;28;20095;-73
2022/07/21 02:09:55;;;;;;;6.60;4.10;;;;;;;;;;5122259;28;20027;-72
2022/07/21 02:12:20;;;;;;;8.70;4.18;;;;;;;;;;5122243;28;20029;-73
2022/07/21 02:14:46;;;;;;;6.40;3.67;;;;;;;;;;5121921;28;20015;-73
2022/07/21 02:17:11;;;;;;;9.27;4.15;;;;;;;;;;5122294;28;20088;-72
2022/07/21 02:19:36;;;;;;;6.88;3.95;;;;;;;;;;5121670;28;20043;-72
2022/07/21 02:22:02;;;;;;;6.68;3.90;;;;;;;;;;5122163;28;20027;-72
2022/07/21 02:24:27;;;;;;;5.80;4.10;;;;;;;;;;5121546;28;20181;-73
2022/07/21 02:26:52;;;;;;;5.60;3.70;;;;;;;;;;5121822;28;20095;-72
2022/07/21 02:29:18;;;;;;;6.82;3.80;;;;;;;;;;5121721;28;20024;-73
2022/07/21 02:31:43;;;;;;;5.55;3.72;;;;;;;;;;5121849;28;20192;-73
2022/07/21 02:34:08;;;;;;;5.97;3.75;;;;;;;;;;5093036;28;20031;-72
2022/07/21 02:36:34;;;;;;;6.03;3.53;;;;;;;;;;5119251;28;20359;-74
2022/07/21 02:38:59;;;;;;;5.05;3.75;;;;;;;;;;5121267;28;20084;-72
2022/07/21 02:41:24;;;;;;;5.10;3.35;;;;;;;;;;5092182;28;20097;-72
2022/07/21 02:43:50;;;;;;;7.03;3.80;;;;;;;;;;5121478;28;20031;-72
2022/07/21 02:46:15;;;;;;;7.78;3.58;;;;;;;;;;5121538;28;20023;-72
2022/07/21 02:48:40;;;;;;;6.70;3.60;;;;;;;;;;5121224;28;20046;-72
2022/07/21 02:51:06;;;;;;;6.22;3.65;;;;;;;;;;5119911;28;20051;-72
2022/07/21 02:53:31;;;;;;;7.50;3.33;;;;;;;;;;5099278;28;20023;-72
2022/07/21 02:55:57;;;;;;;8.80;3.63;;;;;;;;;;5121537;28;20376;-73
2022/07/21 02:58:27;;;;;;;5.70;3.70;;;;;;;;;;5114763;28;20075;-72
2022/07/21 03:00:55;;;;;;;6.93;3.45;;;;;;;;;;5114681;28;20020;-73
2022/07/21 03:03:22;;;;;;;5.88;3.40;;;;;;;;;;5121350;28;20019;-73
2022/07/21 03:05:48;;;;;;;5.45;3.38;;;;;;;;;;5114731;28;20015;-74
2022/07/21 03:08:14;;;;;;;5.20;3.42;;;;;;;;;;5121220;28;20041;-72
2022/07/21 03:10:40;;;;;;;6.78;3.33;;;;;;;;;;5121367;28;20086;-73
2022/07/21 03:13:06;;;;;;;6.63;3.25;;;;;;;;;;5121487;28;20290;-72
2022/07/21 03:15:32;;;;;;;5.80;3.17;;;;;;;;;;5121297;28;20024;-72
2022/07/21 03:17:57;;;;;;;4.28;3.30;;;;;;;;;;5123832;28;20035;-72
2022/07/21 03:20:24;;;;;;;5.40;3.30;;;;;;;;;;5125351;28;20028;-72
2022/07/21 03:22:49;;;;;;;6.95;3.50;;;;;;;;;;5125339;28;20086;-72
2022/07/21 03:25:15;;;;;;;6.93;3.75;;;;;;;;;;5125450;28;20216;-72
2022/07/21 03:27:41;;;;;;;8.93;4.00;;;;;;;;;;5125345;28;20027;-72
2022/07/21 03:30:08;;;;;;;7.05;3.40;;;;;;;;;;5125275;28;20026;-73
2022/07/21 03:32:35;;;;;;;6.70;3.83;;;;;;;;;;5125237;28;20177;-72
2022/07/21 03:35:00;;;;;;;8.80;3.95;;;;;;;;;;5124910;28;20031;-72
2022/07/21 03:37:26;;;;;;;5.78;3.65;;;;;;;;;;5125240;28;20058;-72
2022/07/21 03:39:52;;;;;;;12.20;3.97;;;;;;;;;;5124904;28;20031;-72
2022/07/21 03:42:17;;;;;;;7.15;4.47;;;;;;;;;;5125127;28;20327;-72
2022/07/21 03:44:42;;;;;;;7.65;4.35;;;;;;;;;;5124762;28;20039;-72
2022/07/21 03:47:08;;;;;;;9.93;4.70;;;;;;;;;;5124949;28;20035;-72
2022/07/21 03:49:33;;;;;;;9.13;5.07;;;;;;;;;;5124499;28;20106;-72
2022/07/21 03:51:59;;;;;;;10.27;5.70;;;;;;;;;;5124842;28;20030;-72
2022/07/21 03:54:24;;;;;;;10.75;5.72;;;;;;;;;;5124474;28;20031;-73
2022/07/21 03:56:49;;;;;;;13.45;5.95;;;;;;;;;;5124523;28;20020;-76
2022/07/21 03:59:15;;;;;;;9.00;5.75;;;;;;;;;;5124654;28;20027;-72
2022/07/21 04:01:41;;;;;;;9.20;5.93;;;;;;;;;;5124778;28;20089;-73
2022/07/21 04:04:06;;;;;;;10.02;6.20;;;;;;;;;;5124361;28;20028;-73
2022/07/21 04:06:32;;;;;;;9.18;5.75;;;;;;;;;;5118448;28;20062;-72
2022/07/21 04:08:57;;;;;;;12.30;6.05;;;;;;;;;;5117771;28;20027;-72
2022/07/21 04:11:22;;;;;;;14.45;6.30;;;;;;;;;;5124417;28;20020;-73
2022/07/21 04:13:48;;;;;;;10.10;6.40;;;;;;;;;;5124473;28;20319;-73
2022/07/21 04:16:13;;;;;;;10.18;6.80;;;;;;;;;;5124334;28;20019;-72
2022/07/21 04:18:38;;;;;;;10.32;6.82;;;;;;;;;;5124125;28;20039;-72
2022/07/21 04:21:04;;;;;;;15.27;7.30;;;;;;;;;;5124591;28;20224;-73
2022/07/21 04:23:29;;;;;;;10.57;6.47;;;;;;;;;;5124169;28;20095;-73
2022/07/21 04:25:55;;;;;;;11.93;7.32;;;;;;;;;;5124206;28;20081;-72
2022/07/21 04:28:20;;;;;;;13.30;7.75;;;;;;;;;;5123527;28;20072;-73
2022/07/21 04:30:45;;;;;;;13.13;8.48;;;;;;;;;;5123860;28;20042;-72
2022/07/21 04:33:11;;;;;;;12.13;8.45;;;;;;;;;;5121056;28;20098;-73
2022/07/21 04:35:36;;;;;;;16.92;8.52;;;;;;;;;;5120129;28;20336;-73
2022/07/21 04:38:02;;;;;;;13.20;7.63;;;;;;;;;;5123881;28;20331;-73
2022/07/21 04:40:27;;;;;;;15.63;8.65;;;;;;;;;;5123815;28;20027;-72
2022/07/21 04:42:52;;;;;;;14.43;8.93;;;;;;;;;;5123893;28;20076;-73
2022/07/21 04:45:18;;;;;;;14.05;8.68;;;;;;;;;;5123631;28;20026;-72
2022/07/21 04:47:52;;;;;;;13.25;9.00;;;;;;;;;;5123832;28;20290;-72
2022/07/21 04:50:19;;;;;;;14.83;8.83;;;;;;;;;;5123827;28;20023;-72
2022/07/21 04:52:45;;;;;;;17.00;8.98;;;;;;;;;;5123534;28;20331;-72
2022/07/21 04:55:11;;;;;;;17.13;8.88;;;;;;;;;;5123486;28;20073;-72
2022/07/21 04:57:39;;;;;;;13.90;8.70;;;;;;;;;;5124109;28;20024;-74
2022/07/21 05:00:05;;;;;;;15.10;8.75;;;;;;;;;;5116552;28;20278;-73
2022/07/21 05:02:31;;;;;;;14.90;9.07;;;;;;;;;;5123611;28;20020;-72
2022/07/21 05:04:56;;;;;;;11.57;8.30;;;;;;;;;;5116534;28;20024;-72
2022/07/21 05:07:21;;;;;;;11.18;7.93;;;;;;;;;;5097743;28;20034;-72
2022/07/21 05:09:47;;;;;;;15.02;8.90;;;;;;;;;;5117037;28;20299;-72
2022/07/21 05:12:12;;;;;;;15.68;8.63;;;;;;;;;;5123497;28;20270;-72
2022/07/21 05:14:37;;;;;;;15.95;8.60;;;;;;;;;;5122950;28;20023;-72
2022/07/21 05:17:03;;;;;;;13.90;8.65;;;;;;;;;;5123375;28;20052;-72
2022/07/21 05:19:28;;;;;;;13.55;9.20;;;;;;;;;;5122862;28;20020;-72
2022/07/21 05:21:54;;;;;;;16.73;9.35;;;;;;;;;;5123031;28;20026;-72
2022/07/21 05:24:19;;;;;;;19.17;9.73;;;;;;;;;;5122839;28;20015;-73
2022/07/21 05:26:44;;;;;;;16.77;9.18;;;;;;;;;;5123074;28;20043;-73
2022/07/21 05:29:10;;;;;;;14.52;8.75;;;;;;;;;;5122895;28;20016;-72
2022/07/21 05:31:35;;;;;;;15.68;8.90;;;;;;;;;;5094565;28;20304;-79
2022/07/21 05:34:01;;;;;;;12.70;8.50;;;;;;;;;;5119267;28;20028;-72
2022/07/21 05:36:26;;;;;;;18.88;10.15;;;;;;;;;;5122867;28;20418;-72
2022/07/21 05:38:51;;;;;;;14.65;9.82;;;;;;;;;;5122193;28;20027;-72
2022/07/21 05:41:17;;;;;;;16.05;10.38;;;;;;;;;;5122623;28;20095;-72
2022/07/21 05:43:42;;;;;;;17.23;10.32;;;;;;;;;;5122507;28;20058;-72
2022/07/21 05:46:07;;;;;;;18.50;10.20;;;;;;;;;;5122797;28;20023;-74
2022/07/21 05:48:33;;;;;;;19.13;10.27;;;;;;;;;;5122501;28;20035;-72
2022/07/21 05:50:58;;;;;;;16.77;10.32;;;;;;;;;;5122986;28;20051;-72
2022/07/21 05:53:24;;;;;;;19.35;9.70;;;;;;;;;;5122176;28;20032;-73
2022/07/21 05:55:49;;;;;;;18.48;10.00;;;;;;;;;;5122279;28;20029;-72
2022/07/21 05:58:15;;;;;;;15.25;10.00;;;;;;;;;;5096955;28;20028;-72
2022/07/21 06:00:41;;;;;;;17.73;10.00;;;;;;;;;;5115491;28;20020;-73
2022/07/21 06:03:06;;;;;;;17.98;9.63;;;;;;;;;;5122376;28;20022;-72
2022/07/21 06:05:31;;;;;;;19.70;9.60;;;;;;;;;;5115296;28;20027;-72
2022/07/21 06:07:57;;;;;;;17.67;9.40;;;;;;;;;;5122361;28;20024;-73
2022/07/21 06:10:22;;;;;;;14.75;9.27;;;;;;;;;;5115475;28;20035;-72
2022/07/21 06:12:48;;;;;;;20.90;10.30;;;;;;;;;;5121665;28;20027;-73
2022/07/21 06:15:13;;;;;;;17.52;9.38;;;;;;;;;;5121800;28;20027;-72
2022/07/21 06:17:43;;;;;;;19.77;9.48;;;;;;;;;;5122062;28;20355;-73
2022/07/21 06:20:10;;;;;;;16.05;9.55;;;;;;;;;;5121744;28;20028;-72
2022/07/21 06:22:36;;;;;;;16.92;9.35;;;;;;;;;;5121311;28;20043;-72
2022/07/21 06:25:02;;;;;;;21.52;10.15;;;;;;;;;;5121710;28;20024;-73
2022/07/21 06:27:28;;;;;;;20.45;9.93;;;;;;;;;;5121691;28;20030;-73
2022/07/21 06:29:56;;;;;;;19.67;9.50;;;;;;;;;;5121397;28;20045;-72
2022/07/21 06:32:22;;;;;;;23.35;10.43;;;;;;;;;;5121460;28;20060;-73
2022/07/21 06:34:47;;;;;;;20.77;9.60;;;;;;;;;;5121452;28;20035;-73
2022/07/21 06:37:12;;;;;;;23.48;9.45;;;;;;;;;;5121367;28;20323;-72
2022/07/21 06:39:41;;;;;;;20.50;9.23;;;;;;;;;;5121303;28;20354;-72
2022/07/21 06:42:07;;;;;;;16.95;9.57;;;;;;;;;;5109755;28;20020;-72
2022/07/21 06:44:33;;;;;;;19.98;9.63;;;;;;;;;;5121276;28;20019;-72
2022/07/21 06:47:04;;;;;;;18.80;9.10;;;;;;;;;;5121585;28;20027;-72
2022/07/21 06:49:32;;;;;;;16.10;9.45;;;;;;;;;;5121128;28;20344;-72
2022/07/21 06:51:58;;;;;;;16.30;9.38;;;;;;;;;;5120660;28;20027;-72
2022/07/21 06:54:23;;;;;;;20.02;9.45;;;;;;;;;;5121042;28;20065;-72
2022/07/21 06:56:49;;;;;;;21.08;8.90;;;;;;;;;;5121343;28;20219;-72
2022/07/21 06:59:14;;;;;;;18.73;8.95;;;;;;;;;;5114589;28;20085;-72
2022/07/21 07:01:39;;;;;;;17.65;8.60;;;;;;;;;;5121459;28;20240;-72
2022/07/21 07:04:05;;;;;;;24.35;8.88;;;;;;;;;;5121037;28;20022;-73
2022/07/21 07:06:30;;;;;;;17.73;9.30;;;;;;;;;;5114734;28;20020;-73
2022/07/21 07:08:56;;;;;;;22.17;8.90;;;;;;;;;;5120781;28;20019;-72
2022/07/21 07:11:21;;;;;;;20.15;9.07;;;;;;;;;;5120877;28;20327;-72
2022/07/21 07:13:47;;;;;;;16.58;8.98;;;;;;;;;;5121085;28;20020;-72
2022/07/21 07:16:13;;;;;;;18.20;9.25;;;;;;;;;;5121230;28;20035;-72
2022/07/21 07:18:38;;;;;;;17.27;9.35;;;;;;;;;;5121065;28;20347;-72
2022/07/21 07:21:04;;;;;;;18.60;8.93;;;;;;;;;;5120853;28;20019;-72
2022/07/21 07:23:29;;;;;;;16.77;8.50;;;;;;;;;;5120718;28;20015;-73
2022/07/21 07:25:54;;;;;;;16.92;8.85;;;;;;;;;;5120950;28;20129;-72
2022/07/21 07:28:20;;;;;;;14.35;8.25;;;;;;;;;;5120993;28;20086;-72
2022/07/21 07:30:45;;;;;;;20.17;8.50;;;;;;;;;;5120842;28;20065;-72
2022/07/21 07:33:11;;;;;;;20.17;9.40;;;;;;;;;;5120931;28;20084;-74
2022/07/21 07:35:36;;;;;;;19.42;9.13;;;;;;;;;;5120775;28;20043;-72
2022/07/21 07:38:01;;;;;;;18.55;9.10;;;;;;;;;;5120479;28;20038;-73
2022/07/21 07:40:27;;;;;;;17.70;9.50;;;;;;;;;;5120679;28;20185;-73
2022/07/21 07:42:52;;;;;;;17.95;9.02;;;;;;;;;;5118968;28;20220;-73
2022/07/21 07:45:18;;;;;;;17.48;8.70;;;;;;;;;;5120763;28;20334;-72
2022/07/21 07:47:44;;;;;;;15.85;9.00;;;;;;;;;;5120821;28;20024;-74
2022/07/21 07:50:13;;;;;;;17.05;8.85;;;;;;;;;;5120609;28;20024;-72
2022/07/21 07:52:40;;;;;;;16.67;8.43;;;;;;;;;;5109781;28;20341;-72
2022/07/21 07:55:10;;;;;;;14.45;8.38;;;;;;;;;;5115870;28;20049;-72
2022/07/21 07:57:35;;;;;;;16.92;8.43;;;;;;;;;;5114684;28;20047;-73
2022/07/21 08:00:04;;;;;;;19.50;8.45;;;;;;;;;;5114510;28;20086;-72
2022/07/21 08:02:30;;;;;;;16.38;8.45;;;;;;;;;;5107709;28;20102;-72
2022/07/21 08:04:55;;;;;;;16.35;8.30;;;;;;;;;;5116859;28;20020;-73
2022/07/21 08:07:20;;;;;;;17.58;7.97;;;;;;;;;;5105840;28;20024;-73
2022/07/21 08:09:46;;;;;;;16.13;7.97;;;;;;;;;;5124017;28;20023;-72
2022/07/21 08:12:11;;;;;;;15.70;7.80;;;;;;;;;;5118011;28;20051;-72
2022/07/21 08:14:36;;;;;;;14.55;7.90;;;;;;;;;;5124207;28;20215;-74
2022/07/21 08:17:02;;;;;;;15.70;7.38;;;;;;;;;;5106254;28;20015;-72
2022/07/21 08:19:27;;;;;;;14.63;8.25;;;;;;;;;;5117368;28;20023;-72
2022/07/21 08:21:53;;;;;;;12.90;7.60;;;;;;;;;;5124295;28;20023;-73
2022/07/21 08:24:18;;;;;;;15.25;7.68;;;;;;;;;;5123868;28;20027;-73
2022/07/21 08:26:44;;;;;;;13.30;6.88;;;;;;;;;;5123906;28;20038;-73
2022/07/21 08:29:10;;;;;;;13.35;7.97;;;;;;;;;;5123893;28;20043;-73
2022/07/21 08:31:35;;;;;;;12.13;7.90;;;;;;;;;;5123922;28;20031;-74
2022/07/21 08:34:00;;;;;;;13.52;8.00;;;;;;;;;;5124302;28;20023;-73
2022/07/21 08:36:26;;;;;;;14.75;7.93;;;;;;;;;;5123880;28;20327;-72
2022/07/21 08:38:51;;;;;;;16.10;7.50;;;;;;;;;;5123577;28;20024;-72
2022/07/21 08:41:16;;;;;;;14.95;8.10;;;;;;;;;;5124219;28;20069;-72
2022/07/21 08:43:42;;;;;;;15.32;7.43;;;;;;;;;;5123916;28;20212;-74
2022/07/21 08:46:08;;;;;;;13.93;7.53;;;;;;;;;;5123909;28;20425;-73
2022/07/21 08:48:35;;;;;;;16.98;7.65;;;;;;;;;;5123200;28;20230;-72
2022/07/21 08:51:01;;;;;;;14.23;7.90;;;;;;;;;;5117305;28;20035;-73
2022/07/21 08:53:28;;;;;;;13.43;7.80;;;;;;;;;;5123867;28;20059;-73
2022/07/21 08:55:54;;;;;;;14.50;8.05;;;;;;;;;;5117019;28;20016;-72
2022/07/21 08:58:19;;;;;;;14.00;7.10;;;;;;;;;;5123491;28;20020;-73
2022/07/21 09:00:48;;;;;;;17.20;7.38;;;;;;;;;;5117426;28;20024;-74
2022/07/21 09:03:19;;;;;;;15.43;8.55;;;;;;;;;;5123135;28;20030;-72
2022/07/21 09:06:06;;;;;;;15.02;7.30;;;;;;;;;;5115980;28;20028;-72
2022/07/21 09:08:44;;;;;;;11.57;7.15;;;;;;;;;;5113301;28;20211;-72
2022/07/21 09:11:17;;;;;;;12.30;7.60;;;;;;;;;;5123105;28;20108;-72
2022/07/21 09:13:44;;;;;;;13.07;7.60;;;;;;;;;;5123226;28;20383;-72
2022/07/21 09:16:10;;;;;;;14.38;7.60;;;;;;;;;;5122676;28;20039;-73
2022/07/21 09:19:02;;;;;;;12.00;7.78;;;;;;;;;;5123050;28;20031;-73
2022/07/21 09:21:28;;;;;;;12.02;7.72;;;;;;;;;;5118636;28;20035;-73
2022/07/21 09:24:25;;;;;;;12.65;7.40;;;;;;;;;;5122795;28;20018;-73
2022/07/21 09:27:06;;;;;;;15.07;8.70;;;;;;;;;;5114447;28;20031;-73
2022/07/21 09:29:41;;;;;;;12.88;8.05;;;;;;;;;;5122978;28;20023;-73
2022/07/21 09:32:21;;;;;;;13.95;8.23;;;;;;;;;;5111376;28;20350;-72
2022/07/21 09:34:49;;;;;;;12.88;7.60;;;;;;;;;;5122706;28;20031;-73
2022/07/21 09:37:15;;;;;;;12.48;7.97;;;;;;;;;;5123012;28;20050;-73
2022/07/21 09:39:40;;;;;;;14.90;8.10;;;;;;;;;;5122127;28;20335;-73
2022/07/21 09:42:13;;;;;;;15.57;7.95;;;;;;;;;;5117539;28;20028;-74
2022/07/21 09:44:43;;;;;;;16.67;7.95;;;;;;;;;;5122721;28;20083;-73
2022/07/21 09:47:14;;;;;;;15.05;7.75;;;;;;;;;;5122620;28;20311;-73
2022/07/21 09:49:41;;;;;;;12.77;8.50;;;;;;;;;;5120049;28;20052;-72
2022/07/21 09:52:30;;;;;;;10.85;8.10;;;;;;;;;;5122365;28;20267;-73
2022/07/21 09:55:07;;;;;;;12.48;7.45;;;;;;;;;;5122331;28;20095;-73
2022/07/21 09:57:33;;;;;;;10.93;7.30;;;;;;;;;;5122344;28;20132;-72
2022/07/21 09:59:59;;;;;;;15.77;7.70;;;;;;;;;;5122254;28;20031;-73
2022/07/21 10:02:27;;;;;;;10.75;7.80;;;;;;;;;;5116006;28;20020;-73
2022/07/21 10:05:04;;;;;;;13.88;8.02;;;;;;;;;;5116446;28;20027;-73
2022/07/21 10:07:31;;;;;;;13.70;8.05;;;;;;;;;;5117470;28;20031;-72
2022/07/21 10:09:57;;;;;;;15.57;8.52;;;;;;;;;;5121813;28;20024;-72
2022/07/21 10:12:24;;;;;;;12.07;8.02;;;;;;;;;;5115823;28;20034;-73
2022/07/21 10:14:50;;;;;;;11.85;8.10;;;;;;;;;;5122324;28;20023;-72
2022/07/21 10:17:17;;;;;;;14.38;8.10;;;;;;;;;;5122040;28;20050;-72
2022/07/21 10:19:54;;;;;;;14.60;7.55;;;;;;;;;;5121734;28;20020;-72
2022/07/21 10:22:28;;;;;;;10.48;7.45;;;;;;;;;;5113604;28;20016;-72
2022/07/21 10:24:53;;;;;;;10.95;7.00;;;;;;;;;;5121756;28;20201;-72
2022/07/21 10:27:19;;;;;;;13.02;7.15;;;;;;;;;;5121195;28;20230;-73
2022/07/21 10:29:47;;;;;;;13.18;7.40;;;;;;;;;;5121633;28;20064;-72
2022/07/21 10:32:17;;;;;;;14.27;6.95;;;;;;;;;;5121690;28;20092;-73
2022/07/21 10:34:42;;;;;;;10.10;7.10;;;;;;;;;;5121463;28;20319;-72
2022/07/21 10:37:08;;;;;;;11.13;6.60;;;;;;;;;;5121592;28;20042;-73
2022/07/21 10:39:34;;;;;;;9.60;6.93;;;;;;;;;;5121393;28;20325;-72
2022/07/21 10:42:12;;;;;;;14.30;7.32;;;;;;;;;;5121656;28;20264;-72
2022/07/21 10:44:39;;;;;;;10.82;7.15;;;;;;;;;;5114953;28;20015;-73
2022/07/21 10:47:20;;;;;;;11.75;6.93;;;;;;;;;;5121800;28;20402;-72
2022/07/21 10:49:54;;;;;;;11.35;6.85;;;;;;;;;;5121319;28;20335;-73
2022/07/21 10:52:35;;;;;;;12.75;6.50;;;;;;;;;;5112442;28;20015;-73
2022/07/21 10:55:10;;;;;;;8.35;6.13;;;;;;;;;;5121458;28;20322;-73
2022/07/21 10:57:36;;;;;;;8.70;6.05;;;;;;;;;;5109570;28;20019;-73
2022/07/21 11:00:30;;;;;;;11.32;6.05;;;;;;;;;;5115622;28;20087;-73
2022/07/21 11:03:00;;;;;;;9.23;5.90;;;;;;;;;;5111856;28;20024;-73
2022/07/21 11:05:29;;;;;;;7.68;6.00;;;;;;;;;;5115039;28;20027;-73
2022/07/21 11:08:16;;;;;;;8.63;5.90;;;;;;;;;;5121152;28;20022;-73
2022/07/21 11:10:48;;;;;;;7.97;5.75;;;;;;;;;;5121102;28;20036;-72
2022/07/21 11:13:15;;;;;;;9.00;5.90;;;;;;;;;;5108511;28;20263;-73
2022/07/21 11:15:57;;;;;;;9.85;5.32;;;;;;;;;;5114545;28;20024;-73
2022/07/21 11:18:25;;;;;;;8.70;5.32;;;;;;;;;;5085163;28;20028;-72
2022/07/21 11:21:12;;;;;;;8.32;5.47;;;;;;;;;;5116517;28;20038;-73
2022/07/21 11:23:46;;;;;;;8.98;5.97;;;;;;;;;;5112476;28;20042;-73
2022/07/21 11:26:15;;;;;;;10.57;6.10;;;;;;;;;;5102929;28;20391;-74
2022/07/21 11:28:40;;;;;;;12.65;5.55;;;;;;;;;;5121094;28;20470;-73
2022/07/21 11:31:23;;;;;;;8.82;5.75;;;;;;;;;;5102840;28;20306;-73
2022/07/21 11:33:49;;;;;;;8.20;5.30;;;;;;;;;;5109351;28;20024;-75
2022/07/21 11:36:26;;;;;;;8.32;5.20;;;;;;;;;;5121140;28;20193;-73
2022/07/21 11:39:09;;;;;;;8.75;5.55;;;;;;;;;;5116106;28;20027;-73
2022/07/21 11:41:36;;;;;;;10.55;5.80;;;;;;;;;;5124685;28;20034;-72
2022/07/21 11:44:03;;;;;;;11.43;7.80;;;;;;;;;;5124952;28;20024;-73
2022/07/21 11:46:44;;;;;;;12.95;6.40;;;;;;;;;;5125025;28;20038;-73
2022/07/21 11:49:10;;;;;;;11.20;5.63;;;;;;;;;;5124898;28;20043;-73
2022/07/21 11:51:36;;;;;;;8.05;5.50;;;;;;;;;;5124836;28;20086;-75
2022/07/21 11:54:02;;;;;;;8.65;5.05;;;;;;;;;;5124504;28;20031;-74
2022/07/21 11:56:27;;;;;;;9.80;5.78;;;;;;;;;;5124894;28;20034;-73
2022/07/21 11:59:09;;;;;;;9.38;5.60;;;;;;;;;;5124240;28;20324;-74
2022/07/21 12:01:54;;;;;;;11.07;5.60;;;;;;;;;;5124946;28;20138;-75
2022/07/21 12:04:30;;;;;;;9.48;5.38;;;;;;;;;;5123981;28;20022;-73
2022/07/21 12:06:56;;;;;;;10.07;5.72;;;;;;;;;;5120748;28;20027;-74
2022/07/21 12:09:22;;;;;;;9.15;5.72;;;;;;;;;;5124184;28;20085;-72
2022/07/21 12:11:47;;;;;;;8.55;5.45;;;;;;;;;;5124742;28;20359;-73
2022/07/21 12:14:13;;;;;;;8.38;5.35;;;;;;;;;;5117756;28;20019;-73
2022/07/21 12:16:52;;;;;;;8.60;5.40;;;;;;;;;;5124660;28;20019;-73
2022/07/21 12:19:18;;;;;;;15.68;5.47;;;;;;;;;;5124071;28;20038;-75
2022/07/21 12:21:52;;;;;;;8.88;5.65;;;;;;;;;;5124454;28;20023;-73
2022/07/21 12:24:19;;;;;;;7.97;5.88;;;;;;;;;;5124158;28;20050;-74
2022/07/21 12:26:45;;;;;;;12.25;5.60;;;;;;;;;;5120718;28;20027;-73
2022/07/21 12:29:24;;;;;;;10.80;5.93;;;;;;;;;;5124636;28;20047;-73
2022/07/21 12:31:49;;;;;;;10.43;5.80;;;;;;;;;;5124064;28;20065;-72
2022/07/21 12:34:18;;;;;;;12.07;5.68;;;;;;;;;;5124075;28;20311;-73
2022/07/21 12:36:44;;;;;;;9.48;5.35;;;;;;;;;;5120184;28;20016;-73
2022/07/21 12:42:11;;;;;;;9.82;5.10;;;;;;;;;;5112123;28;20228;-72
2022/07/21 12:44:37;;;;;;;9.40;5.35;;;;;;;;;;5123838;28;20027;-72
2022/07/21 12:47:17;;;;;;;9.98;5.22;;;;;;;;;;5123566;28;20015;-73
2022/07/21 12:49:57;;;;;;;8.45;5.10;;;;;;;;;;5122585;28;20047;-73
2022/07/21 12:52:24;;;;;;;12.35;5.85;;;;;;;;;;5114785;28;20020;-73
2022/07/21 12:54:49;;;;;;;9.88;5.35;;;;;;;;;;5123237;28;20053;-74
2022/07/21 12:57:14;;;;;;;8.90;5.50;;;;;;;;;;5123626;28;20222;-73
2022/07/21 12:59:40;;;;;;;9.73;5.45;;;;;;;;;;5123783;28;20303;-73
2022/07/21 13:02:05;;;;;;;10.57;5.63;;;;;;;;;;5120879;28;20216;-72
2022/07/21 13:04:31;;;;;;;7.68;5.03;;;;;;;;;;5117057;28;20034;-73
2022/07/21 13:06:56;;;;;;;10.82;5.00;;;;;;;;;;5119264;28;20135;-73
2022/07/21 13:09:22;;;;;;;7.43;5.15;;;;;;;;;;5122995;28;20032;-73
2022/07/21 13:11:47;;;;;;;9.23;4.95;;;;;;;;;;5123399;28;20054;-73
2022/07/21 13:14:13;;;;;;;7.75;5.10;;;;;;;;;;5116535;28;20241;-73
2022/07/21 13:16:38;;;;;;;6.97;5.03;;;;;;;;;;5123352;28;20283;-73
2022/07/21 13:19:04;;;;;;;8.27;5.57;;;;;;;;;;5123202;28;20035;-73
2022/07/21 13:21:30;;;;;;;8.63;5.72;;;;;;;;;;5122712;28;20075;-73
2022/07/21 13:23:55;;;;;;;11.32;5.22;;;;;;;;;;5113620;28;20023;-73
2022/07/21 13:26:20;;;;;;;7.63;5.10;;;;;;;;;;5123057;28;20016;-73
2022/07/21 13:28:46;;;;;;;11.63;5.40;;;;;;;;;;5123079;28;20098;-73
2022/07/21 13:31:11;;;;;;;8.68;5.38;;;;;;;;;;5123350;28;20023;-74
2022/07/21 13:33:37;;;;;;;8.93;5.35;;;;;;;;;;5122733;28;20263;-73
2022/07/21 13:36:04;;;;;;;9.60;5.22;;;;;;;;;;5122745;28;20118;-73
2022/07/21 13:38:30;;;;;;;7.30;5.30;;;;;;;;;;5117924;28;20322;-73
2022/07/21 13:40:56;;;;;;;10.80;5.30;;;;;;;;;;5120599;28;20027;-73
2022/07/21 13:43:22;;;;;;;8.98;5.40;;;;;;;;;;5122472;28;20054;-73
2022/07/21 13:45:47;;;;;;;9.73;5.45;;;;;;;;;;5122577;28;20015;-73
2022/07/21 13:48:12;;;;;;;14.50;5.40;;;;;;;;;;5122274;28;20035;-73
2022/07/21 13:50:38;;;;;;;7.50;5.15;;;;;;;;;;5122569;28;20028;-72
2022/07/21 13:53:03;;;;;;;7.57;5.13;;;;;;;;;;5122413;28;20548;-73
2022/07/21 13:55:28;;;;;;;7.47;5.00;;;;;;;;;;5122148;28;20330;-73
2022/07/21 13:57:54;;;;;;;8.75;4.85;;;;;;;;;;5122320;28;20028;-73
2022/07/21 14:00:19;;;;;;;9.10;5.40;;;;;;;;;;5121869;28;20121;-73
2022/07/21 14:02:45;;;;;;;7.50;4.97;;;;;;;;;;5115630;28;20028;-73
2022/07/21 14:05:10;;;;;;;10.07;5.35;;;;;;;;;;5115546;28;20351;-72
2022/07/21 14:07:35;;;;;;;8.00;5.30;;;;;;;;;;5122009;28;20403;-73
2022/07/21 14:10:01;;;;;;;6.78;4.90;;;;;;;;;;5121804;28;20208;-73
2022/07/21 14:12:26;;;;;;;7.47;5.00;;;;;;;;;;5122189;28;20049;-73
2022/07/21 14:14:52;;;;;;;8.30;5.18;;;;;;;;;;5115382;28;20019;-73
2022/07/21 14:17:18;;;;;;;7.30;5.05;;;;;;;;;;5122187;28;20322;-73
2022/07/21 14:19:46;;;;;;;7.22;5.10;;;;;;;;;;5121515;28;20031;-74
2022/07/21 14:22:12;;;;;;;8.43;5.18;;;;;;;;;;5122020;28;20091;-73
2022/07/21 14:27:21;;;;;;;8.07;5.00;;;;;;;;;;5114366;28;20088;-73
2022/07/21 14:29:47;;;;;;;7.75;5.22;;;;;;;;;;5121495;28;20568;-73
2022/07/21 14:32:13;;;;;;;8.52;5.10;;;;;;;;;;5121944;28;20365;-73
2022/07/21 14:34:38;;;;;;;7.72;5.20;;;;;;;;;;5116392;28;20031;-74
2022/07/21 14:37:04;;;;;;;7.53;5.45;;;;;;;;;;5115217;28;20061;-73
2022/07/21 14:39:29;;;;;;;8.35;5.40;;;;;;;;;;5114778;28;20027;-78
2022/07/21 14:41:55;;;;;;;6.97;5.00;;;;;;;;;;5121787;28;20163;-73
2022/07/21 14:44:20;;;;;;;9.40;5.40;;;;;;;;;;5121624;28;20042;-73